sensor_id;sensor_type;location;lat;lon;timestamp;P1;durP1;ratioP1;P2;durP2;ratioP2
47772;SDS011;33534;51.028;13.716;2023-02-15T00:01:14;94.05;;;35.72;;
47772;SDS011;33534;51.028;13.716;2023-02-15T00:03:40;90.90;;;34.72;;
47772;SDS011;33534;51.028;13.716;2023-02-15T00:06:06;86.07;;;36.03;;
47772;SDS011;33534;51.028;13.716;2023-02-15T00:08:32;85.30;;;34.33;;
47772;SDS011;33534;51.028;13.716;2023-02-15T00:11:08;98.10;;;36.30;;
47772;SDS011;33534;51.028;13.716;2023-02-15T00:13:35;88.72;;;36.60;;
47772;SDS011;33534;51.028;13.716;2023-02-15T00:16:01;92.72;;;37.28;;
47772;SDS011;33534;51.028;13.716;2023-02-15T00:18:28;91.70;;;35.45;;
47772;SDS011;33534;51.028;13.716;2023-02-15T00:20:54;90.53;;;35.00;;
47772;SDS011;33534;51.028;13.716;2023-02-15T00:23:20;99.03;;;38.78;;
47772;SDS011;33534;51.028;13.716;2023-02-15T00:25:46;89.13;;;35.50;;
47772;SDS011;33534;51.028;13.716;2023-02-15T00:28:12;90.93;;;36.33;;
47772;SDS011;33534;51.028;13.716;2023-02-15T00:30:38;93.70;;;35.97;;
47772;SDS011;33534;51.028;13.716;2023-02-15T00:33:04;90.22;;;35.08;;
47772;SDS011;33534;51.028;13.716;2023-02-15T00:35:30;100.97;;;38.83;;
47772;SDS011;33534;51.028;13.716;2023-02-15T00:37:56;83.80;;;32.30;;
47772;SDS011;33534;51.028;13.716;2023-02-15T00:40:22;95.30;;;35.28;;
47772;SDS011;33534;51.028;13.716;2023-02-15T00:42:48;99.40;;;36.88;;
47772;SDS011;33534;51.028;13.716;2023-02-15T00:45:14;92.90;;;36.53;;
47772;SDS011;33534;51.028;13.716;2023-02-15T00:47:40;87.85;;;33.33;;
47772;SDS011;33534;51.028;13.716;2023-02-15T00:50:06;88.35;;;33.65;;
47772;SDS011;33534;51.028;13.716;2023-02-15T00:52:32;92.68;;;35.15;;
47772;SDS011;33534;51.028;13.716;2023-02-15T00:54:58;80.63;;;32.88;;
47772;SDS011;33534;51.028;13.716;2023-02-15T00:57:24;92.30;;;33.92;;
47772;SDS011;33534;51.028;13.716;2023-02-15T00:59:50;98.05;;;34.38;;
47772;SDS011;33534;51.028;13.716;2023-02-15T01:02:16;84.90;;;33.53;;
47772;SDS011;33534;51.028;13.716;2023-02-15T01:04:42;81.18;;;32.30;;
47772;SDS011;33534;51.028;13.716;2023-02-15T01:07:08;86.80;;;32.40;;
47772;SDS011;33534;51.028;13.716;2023-02-15T01:09:34;87.38;;;33.40;;
47772;SDS011;33534;51.028;13.716;2023-02-15T01:12:00;90.90;;;34.47;;
47772;SDS011;33534;51.028;13.716;2023-02-15T01:14:26;93.13;;;33.85;;
47772;SDS011;33534;51.028;13.716;2023-02-15T01:16:52;91.57;;;34.10;;
47772;SDS011;33534;51.028;13.716;2023-02-15T01:19:18;94.15;;;35.00;;
47772;SDS011;33534;51.028;13.716;2023-02-15T01:21:44;91.65;;;34.30;;
47772;SDS011;33534;51.028;13.716;2023-02-15T01:24:11;88.43;;;34.35;;
47772;SDS011;33534;51.028;13.716;2023-02-15T01:26:37;87.93;;;33.35;;
47772;SDS011;33534;51.028;13.716;2023-02-15T01:29:03;84.35;;;32.63;;
47772;SDS011;33534;51.028;13.716;2023-02-15T01:31:29;91.30;;;33.60;;
47772;SDS011;33534;51.028;13.716;2023-02-15T01:33:55;85.35;;;31.98;;
47772;SDS011;33534;51.028;13.716;2023-02-15T01:36:21;81.18;;;33.88;;
47772;SDS011;33534;51.028;13.716;2023-02-15T01:38:47;84.55;;;32.05;;
47772;SDS011;33534;51.028;13.716;2023-02-15T01:41:14;88.43;;;33.47;;
47772;SDS011;33534;51.028;13.716;2023-02-15T01:43:52;99.78;;;32.65;;
47772;SDS011;33534;51.028;13.716;2023-02-15T01:46:20;93.88;;;34.47;;
47772;SDS011;33534;51.028;13.716;2023-02-15T01:48:48;91.97;;;33.70;;
47772;SDS011;33534;51.028;13.716;2023-02-15T01:51:17;89.00;;;32.88;;
47772;SDS011;33534;51.028;13.716;2023-02-15T01:53:46;84.43;;;32.63;;
47772;SDS011;33534;51.028;13.716;2023-02-15T01:56:18;94.57;;;32.45;;
47772;SDS011;33534;51.028;13.716;2023-02-15T01:58:44;94.95;;;33.65;;
47772;SDS011;33534;51.028;13.716;2023-02-15T02:01:10;82.70;;;31.98;;
47772;SDS011;33534;51.028;13.716;2023-02-15T02:06:08;76.32;;;30.02;;
47772;SDS011;33534;51.028;13.716;2023-02-15T02:08:35;73.35;;;29.52;;
47772;SDS011;33534;51.028;13.716;2023-02-15T02:11:01;81.45;;;30.17;;
47772;SDS011;33534;51.028;13.716;2023-02-15T02:13:27;70.22;;;29.10;;
47772;SDS011;33534;51.028;13.716;2023-02-15T02:24:01;71.07;;;27.15;;
47772;SDS011;33534;51.028;13.716;2023-02-15T02:34:35;64.18;;;27.17;;
47772;SDS011;33534;51.028;13.716;2023-02-15T02:39:55;65.18;;;27.75;;
47772;SDS011;33534;51.028;13.716;2023-02-15T02:42:25;67.80;;;28.27;;
47772;SDS011;33534;51.028;13.716;2023-02-15T02:44:54;64.72;;;27.73;;
47772;SDS011;33534;51.028;13.716;2023-02-15T02:47:23;74.88;;;29.33;;
47772;SDS011;33534;51.028;13.716;2023-02-15T02:49:58;76.90;;;28.50;;
47772;SDS011;33534;51.028;13.716;2023-02-15T02:57:51;71.28;;;26.85;;
47772;SDS011;33534;51.028;13.716;2023-02-15T03:00:18;77.13;;;29.20;;
47772;SDS011;33534;51.028;13.716;2023-02-15T03:02:45;76.30;;;29.80;;
47772;SDS011;33534;51.028;13.716;2023-02-15T03:05:15;73.13;;;28.33;;
47772;SDS011;33534;51.028;13.716;2023-02-15T03:07:42;66.35;;;25.80;;
47772;SDS011;33534;51.028;13.716;2023-02-15T03:10:09;79.15;;;28.73;;
47772;SDS011;33534;51.028;13.716;2023-02-15T03:12:36;73.70;;;27.27;;
47772;SDS011;33534;51.028;13.716;2023-02-15T03:15:08;66.45;;;27.00;;
47772;SDS011;33534;51.028;13.716;2023-02-15T03:17:37;64.43;;;27.58;;
47772;SDS011;33534;51.028;13.716;2023-02-15T03:20:26;69.75;;;25.45;;
47772;SDS011;33534;51.028;13.716;2023-02-15T03:22:58;70.90;;;27.10;;
47772;SDS011;33534;51.028;13.716;2023-02-15T03:25:27;67.10;;;27.48;;
47772;SDS011;33534;51.028;13.716;2023-02-15T03:27:54;65.05;;;26.05;;
47772;SDS011;33534;51.028;13.716;2023-02-15T03:30:21;73.15;;;26.67;;
47772;SDS011;33534;51.028;13.716;2023-02-15T03:32:48;70.88;;;26.30;;
47772;SDS011;33534;51.028;13.716;2023-02-15T03:35:15;69.80;;;28.15;;
47772;SDS011;33534;51.028;13.716;2023-02-15T03:37:42;70.53;;;28.10;;
47772;SDS011;33534;51.028;13.716;2023-02-15T03:40:11;57.75;;;25.50;;
47772;SDS011;33534;51.028;13.716;2023-02-15T03:45:29;63.33;;;23.98;;
47772;SDS011;33534;51.028;13.716;2023-02-15T03:47:56;61.83;;;24.70;;
47772;SDS011;33534;51.028;13.716;2023-02-15T03:50:25;71.85;;;24.77;;
47772;SDS011;33534;51.028;13.716;2023-02-15T03:53:12;61.25;;;24.30;;
47772;SDS011;33534;51.028;13.716;2023-02-15T03:55:39;76.57;;;26.58;;
47772;SDS011;33534;51.028;13.716;2023-02-15T03:58:05;78.53;;;26.40;;
47772;SDS011;33534;51.028;13.716;2023-02-15T04:01:00;63.38;;;25.52;;
47772;SDS011;33534;51.028;13.716;2023-02-15T04:03:56;75.97;;;27.65;;
47772;SDS011;33534;51.028;13.716;2023-02-15T04:06:23;77.75;;;27.80;;
47772;SDS011;33534;51.028;13.716;2023-02-15T04:08:49;67.07;;;27.65;;
47772;SDS011;33534;51.028;13.716;2023-02-15T04:11:33;69.95;;;26.05;;
47772;SDS011;33534;51.028;13.716;2023-02-15T04:13:59;65.22;;;25.08;;
47772;SDS011;33534;51.028;13.716;2023-02-15T04:16:45;64.72;;;25.50;;
47772;SDS011;33534;51.028;13.716;2023-02-15T04:19:11;74.75;;;27.00;;
47772;SDS011;33534;51.028;13.716;2023-02-15T04:21:56;69.05;;;25.25;;
47772;SDS011;33534;51.028;13.716;2023-02-15T04:24:40;78.75;;;25.95;;
47772;SDS011;33534;51.028;13.716;2023-02-15T04:27:25;71.18;;;24.75;;
47772;SDS011;33534;51.028;13.716;2023-02-15T04:29:51;80.88;;;27.15;;
47772;SDS011;33534;51.028;13.716;2023-02-15T04:32:17;70.43;;;25.35;;
47772;SDS011;33534;51.028;13.716;2023-02-15T04:34:43;76.60;;;26.00;;
47772;SDS011;33534;51.028;13.716;2023-02-15T04:37:09;71.40;;;25.27;;
47772;SDS011;33534;51.028;13.716;2023-02-15T04:39:35;73.45;;;24.90;;
47772;SDS011;33534;51.028;13.716;2023-02-15T04:42:01;76.60;;;25.13;;
47772;SDS011;33534;51.028;13.716;2023-02-15T04:44:27;72.55;;;27.13;;
47772;SDS011;33534;51.028;13.716;2023-02-15T04:46:53;72.93;;;25.60;;
47772;SDS011;33534;51.028;13.716;2023-02-15T04:49:19;76.78;;;26.10;;
47772;SDS011;33534;51.028;13.716;2023-02-15T04:51:45;73.70;;;24.25;;
47772;SDS011;33534;51.028;13.716;2023-02-15T04:54:11;64.38;;;25.35;;
47772;SDS011;33534;51.028;13.716;2023-02-15T04:56:37;67.35;;;26.52;;
47772;SDS011;33534;51.028;13.716;2023-02-15T04:59:03;62.15;;;24.23;;
47772;SDS011;33534;51.028;13.716;2023-02-15T05:01:30;58.85;;;24.98;;
47772;SDS011;33534;51.028;13.716;2023-02-15T05:03:56;68.75;;;25.70;;
47772;SDS011;33534;51.028;13.716;2023-02-15T05:06:22;51.15;;;21.95;;
47772;SDS011;33534;51.028;13.716;2023-02-15T05:08:48;59.70;;;22.63;;
47772;SDS011;33534;51.028;13.716;2023-02-15T05:11:14;59.88;;;23.65;;
47772;SDS011;33534;51.028;13.716;2023-02-15T05:13:40;63.30;;;23.40;;
47772;SDS011;33534;51.028;13.716;2023-02-15T05:16:06;62.90;;;23.88;;
47772;SDS011;33534;51.028;13.716;2023-02-15T05:18:32;65.32;;;24.35;;
47772;SDS011;33534;51.028;13.716;2023-02-15T05:20:58;56.67;;;23.05;;
47772;SDS011;33534;51.028;13.716;2023-02-15T05:23:24;59.15;;;22.25;;
47772;SDS011;33534;51.028;13.716;2023-02-15T05:25:50;64.63;;;23.52;;
47772;SDS011;33534;51.028;13.716;2023-02-15T05:28:35;58.25;;;20.75;;
47772;SDS011;33534;51.028;13.716;2023-02-15T05:33:27;52.63;;;22.15;;
47772;SDS011;33534;51.028;13.716;2023-02-15T05:35:53;53.55;;;22.70;;
47772;SDS011;33534;51.028;13.716;2023-02-15T05:38:19;50.22;;;21.52;;
47772;SDS011;33534;51.028;13.716;2023-02-15T05:40:45;55.17;;;21.30;;
47772;SDS011;33534;51.028;13.716;2023-02-15T05:43:11;48.63;;;20.63;;
47772;SDS011;33534;51.028;13.716;2023-02-15T05:45:37;53.30;;;22.02;;
47772;SDS011;33534;51.028;13.716;2023-02-15T05:48:03;45.80;;;21.02;;
47772;SDS011;33534;51.028;13.716;2023-02-15T05:50:29;49.20;;;21.30;;
47772;SDS011;33534;51.028;13.716;2023-02-15T05:52:55;48.63;;;21.17;;
47772;SDS011;33534;51.028;13.716;2023-02-15T05:55:21;48.42;;;19.75;;
47772;SDS011;33534;51.028;13.716;2023-02-15T05:57:48;40.33;;;19.17;;
47772;SDS011;33534;51.028;13.716;2023-02-15T06:00:14;46.60;;;18.08;;
47772;SDS011;33534;51.028;13.716;2023-02-15T06:02:40;44.90;;;18.77;;
47772;SDS011;33534;51.028;13.716;2023-02-15T06:05:06;49.88;;;19.30;;
47772;SDS011;33534;51.028;13.716;2023-02-15T06:07:33;45.20;;;18.92;;
47772;SDS011;33534;51.028;13.716;2023-02-15T06:09:59;41.80;;;17.77;;
47772;SDS011;33534;51.028;13.716;2023-02-15T06:12:24;46.03;;;19.05;;
47772;SDS011;33534;51.028;13.716;2023-02-15T06:14:50;47.58;;;20.77;;
47772;SDS011;33534;51.028;13.716;2023-02-15T06:17:16;43.67;;;18.48;;
47772;SDS011;33534;51.028;13.716;2023-02-15T06:19:43;54.30;;;22.38;;
47772;SDS011;33534;51.028;13.716;2023-02-15T06:22:09;50.53;;;20.67;;
47772;SDS011;33534;51.028;13.716;2023-02-15T06:24:35;43.33;;;18.20;;
47772;SDS011;33534;51.028;13.716;2023-02-15T06:27:01;39.60;;;17.55;;
47772;SDS011;33534;51.028;13.716;2023-02-15T06:29:27;49.65;;;20.05;;
47772;SDS011;33534;51.028;13.716;2023-02-15T06:31:53;43.20;;;19.10;;
47772;SDS011;33534;51.028;13.716;2023-02-15T06:34:19;47.30;;;19.17;;
47772;SDS011;33534;51.028;13.716;2023-02-15T06:36:45;51.20;;;20.50;;
47772;SDS011;33534;51.028;13.716;2023-02-15T06:39:11;43.03;;;19.80;;
47772;SDS011;33534;51.028;13.716;2023-02-15T06:41:37;49.70;;;21.73;;
47772;SDS011;33534;51.028;13.716;2023-02-15T06:44:03;46.17;;;20.50;;
47772;SDS011;33534;51.028;13.716;2023-02-15T06:46:29;41.53;;;19.40;;
47772;SDS011;33534;51.028;13.716;2023-02-15T06:48:55;43.33;;;19.13;;
47772;SDS011;33534;51.028;13.716;2023-02-15T06:51:21;35.40;;;18.27;;
47772;SDS011;33534;51.028;13.716;2023-02-15T06:53:47;31.75;;;14.98;;
47772;SDS011;33534;51.028;13.716;2023-02-15T06:56:13;30.70;;;16.20;;
47772;SDS011;33534;51.028;13.716;2023-02-15T06:58:39;34.13;;;15.32;;
47772;SDS011;33534;51.028;13.716;2023-02-15T07:01:05;27.08;;;14.95;;
47772;SDS011;33534;51.028;13.716;2023-02-15T07:03:32;25.40;;;13.57;;
47772;SDS011;33534;51.028;13.716;2023-02-15T07:05:59;25.08;;;14.20;;
47772;SDS011;33534;51.028;13.716;2023-02-15T07:08:25;24.73;;;13.35;;
47772;SDS011;33534;51.028;13.716;2023-02-15T07:10:52;22.83;;;12.30;;
47772;SDS011;33534;51.028;13.716;2023-02-15T07:13:18;26.20;;;14.40;;
47772;SDS011;33534;51.028;13.716;2023-02-15T07:15:45;21.55;;;12.40;;
47772;SDS011;33534;51.028;13.716;2023-02-15T07:18:11;24.35;;;13.27;;
47772;SDS011;33534;51.028;13.716;2023-02-15T07:20:37;22.05;;;12.95;;
47772;SDS011;33534;51.028;13.716;2023-02-15T07:23:04;24.60;;;14.23;;
47772;SDS011;33534;51.028;13.716;2023-02-15T07:25:30;24.58;;;13.10;;
47772;SDS011;33534;51.028;13.716;2023-02-15T07:27:57;26.30;;;12.82;;
47772;SDS011;33534;51.028;13.716;2023-02-15T07:30:23;22.33;;;13.23;;
47772;SDS011;33534;51.028;13.716;2023-02-15T07:32:49;24.85;;;11.88;;
47772;SDS011;33534;51.028;13.716;2023-02-15T07:35:34;25.40;;;13.05;;
47772;SDS011;33534;51.028;13.716;2023-02-15T07:38:00;26.92;;;13.05;;
47772;SDS011;33534;51.028;13.716;2023-02-15T07:40:26;22.88;;;12.20;;
47772;SDS011;33534;51.028;13.716;2023-02-15T07:42:52;23.05;;;12.45;;
47772;SDS011;33534;51.028;13.716;2023-02-15T07:45:19;22.70;;;12.23;;
47772;SDS011;33534;51.028;13.716;2023-02-15T07:47:45;20.00;;;11.80;;
47772;SDS011;33534;51.028;13.716;2023-02-15T07:50:12;22.50;;;12.65;;
47772;SDS011;33534;51.028;13.716;2023-02-15T07:52:38;20.77;;;12.50;;
47772;SDS011;33534;51.028;13.716;2023-02-15T07:55:04;20.60;;;12.48;;
47772;SDS011;33534;51.028;13.716;2023-02-15T07:57:30;22.17;;;12.43;;
47772;SDS011;33534;51.028;13.716;2023-02-15T07:59:56;22.50;;;12.35;;
47772;SDS011;33534;51.028;13.716;2023-02-15T08:02:22;25.02;;;12.82;;
47772;SDS011;33534;51.028;13.716;2023-02-15T08:04:48;21.55;;;12.75;;
47772;SDS011;33534;51.028;13.716;2023-02-15T08:07:14;23.02;;;13.48;;
47772;SDS011;33534;51.028;13.716;2023-02-15T08:09:40;23.73;;;12.48;;
47772;SDS011;33534;51.028;13.716;2023-02-15T08:12:06;20.80;;;12.15;;
47772;SDS011;33534;51.028;13.716;2023-02-15T08:14:32;22.08;;;11.95;;
47772;SDS011;33534;51.028;13.716;2023-02-15T08:16:59;18.90;;;11.30;;
47772;SDS011;33534;51.028;13.716;2023-02-15T08:19:31;23.40;;;12.23;;
47772;SDS011;33534;51.028;13.716;2023-02-15T08:21:58;21.00;;;11.95;;
47772;SDS011;33534;51.028;13.716;2023-02-15T08:24:26;19.48;;;11.00;;
47772;SDS011;33534;51.028;13.716;2023-02-15T08:26:52;21.77;;;11.60;;
47772;SDS011;33534;51.028;13.716;2023-02-15T08:29:20;21.67;;;12.07;;
47772;SDS011;33534;51.028;13.716;2023-02-15T08:31:47;19.08;;;10.68;;
47772;SDS011;33534;51.028;13.716;2023-02-15T08:34:14;19.77;;;11.25;;
47772;SDS011;33534;51.028;13.716;2023-02-15T08:36:40;16.92;;;10.48;;
47772;SDS011;33534;51.028;13.716;2023-02-15T08:39:06;19.15;;;11.15;;
47772;SDS011;33534;51.028;13.716;2023-02-15T08:41:34;19.80;;;11.45;;
47772;SDS011;33534;51.028;13.716;2023-02-15T08:44:01;16.23;;;9.93;;
47772;SDS011;33534;51.028;13.716;2023-02-15T08:46:28;18.38;;;10.75;;
47772;SDS011;33534;51.028;13.716;2023-02-15T08:48:55;20.27;;;11.65;;
47772;SDS011;33534;51.028;13.716;2023-02-15T08:51:22;19.33;;;11.50;;
47772;SDS011;33534;51.028;13.716;2023-02-15T08:53:50;19.20;;;11.73;;
47772;SDS011;33534;51.028;13.716;2023-02-15T08:56:16;16.30;;;11.30;;
47772;SDS011;33534;51.028;13.716;2023-02-15T08:58:42;17.15;;;10.98;;
47772;SDS011;33534;51.028;13.716;2023-02-15T09:01:12;18.88;;;11.32;;
47772;SDS011;33534;51.028;13.716;2023-02-15T09:03:38;17.40;;;10.70;;
47772;SDS011;33534;51.028;13.716;2023-02-15T09:06:05;21.52;;;12.48;;
47772;SDS011;33534;51.028;13.716;2023-02-15T09:08:31;19.92;;;11.63;;
47772;SDS011;33534;51.028;13.716;2023-02-15T09:11:04;19.63;;;10.88;;
47772;SDS011;33534;51.028;13.716;2023-02-15T09:13:30;18.98;;;10.82;;
47772;SDS011;33534;51.028;13.716;2023-02-15T09:16:00;17.20;;;10.20;;
47772;SDS011;33534;51.028;13.716;2023-02-15T09:18:27;17.48;;;10.43;;
47772;SDS011;33534;51.028;13.716;2023-02-15T09:20:53;19.65;;;10.88;;
47772;SDS011;33534;51.028;13.716;2023-02-15T09:23:20;19.35;;;11.10;;
47772;SDS011;33534;51.028;13.716;2023-02-15T09:25:46;17.77;;;10.98;;
47772;SDS011;33534;51.028;13.716;2023-02-15T09:28:12;18.52;;;10.57;;
47772;SDS011;33534;51.028;13.716;2023-02-15T09:30:38;16.25;;;10.38;;
47772;SDS011;33534;51.028;13.716;2023-02-15T09:33:04;17.65;;;10.25;;
47772;SDS011;33534;51.028;13.716;2023-02-15T09:35:30;15.68;;;9.75;;
47772;SDS011;33534;51.028;13.716;2023-02-15T09:37:56;17.58;;;9.77;;
47772;SDS011;33534;51.028;13.716;2023-02-15T09:40:22;16.23;;;9.95;;
47772;SDS011;33534;51.028;13.716;2023-02-15T09:50:16;18.33;;;10.25;;
47772;SDS011;33534;51.028;13.716;2023-02-15T09:52:48;17.45;;;10.25;;
47772;SDS011;33534;51.028;13.716;2023-02-15T09:55:24;18.10;;;11.10;;
47772;SDS011;33534;51.028;13.716;2023-02-15T10:02:53;18.42;;;11.10;;
47772;SDS011;33534;51.028;13.716;2023-02-15T10:05:30;20.90;;;11.43;;
47772;SDS011;33534;51.028;13.716;2023-02-15T10:15:48;22.15;;;12.18;;
47772;SDS011;33534;51.028;13.716;2023-02-15T10:19:02;23.40;;;13.18;;
47772;SDS011;33534;51.028;13.716;2023-02-15T10:39:24;24.42;;;13.23;;
47772;SDS011;33534;51.028;13.716;2023-02-15T10:59:57;23.98;;;14.15;;
47772;SDS011;33534;51.028;13.716;2023-02-15T11:07:43;26.73;;;13.45;;
47772;SDS011;33534;51.028;13.716;2023-02-15T11:12:41;21.83;;;13.25;;
47772;SDS011;33534;51.028;13.716;2023-02-15T11:17:52;24.48;;;14.13;;
47772;SDS011;33534;51.028;13.716;2023-02-15T11:20:24;19.33;;;12.68;;
47772;SDS011;33534;51.028;13.716;2023-02-15T11:22:53;26.00;;;14.00;;
47772;SDS011;33534;51.028;13.716;2023-02-15T11:25:24;20.77;;;12.73;;
47772;SDS011;33534;51.028;13.716;2023-02-15T11:27:51;22.17;;;13.98;;
47772;SDS011;33534;51.028;13.716;2023-02-15T11:30:19;23.20;;;13.07;;
47772;SDS011;33534;51.028;13.716;2023-02-15T11:32:45;22.13;;;13.50;;
47772;SDS011;33534;51.028;13.716;2023-02-15T11:37:45;24.05;;;13.77;;
47772;SDS011;33534;51.028;13.716;2023-02-15T11:40:15;25.33;;;14.65;;
47772;SDS011;33534;51.028;13.716;2023-02-15T11:42:43;24.25;;;14.60;;
47772;SDS011;33534;51.028;13.716;2023-02-15T11:45:30;21.75;;;13.43;;
47772;SDS011;33534;51.028;13.716;2023-02-15T11:47:56;24.33;;;14.20;;
47772;SDS011;33534;51.028;13.716;2023-02-15T11:50:23;23.05;;;13.50;;
47772;SDS011;33534;51.028;13.716;2023-02-15T11:52:51;24.30;;;14.45;;
47772;SDS011;33534;51.028;13.716;2023-02-15T11:55:19;21.92;;;13.48;;
47772;SDS011;33534;51.028;13.716;2023-02-15T11:57:48;24.40;;;14.30;;
47772;SDS011;33534;51.028;13.716;2023-02-15T12:00:25;22.97;;;12.70;;
47772;SDS011;33534;51.028;13.716;2023-02-15T12:02:56;23.30;;;14.18;;
47772;SDS011;33534;51.028;13.716;2023-02-15T12:05:23;20.80;;;12.98;;
47772;SDS011;33534;51.028;13.716;2023-02-15T12:07:54;29.92;;;15.38;;
47772;SDS011;33534;51.028;13.716;2023-02-15T12:10:25;23.08;;;14.50;;
47772;SDS011;33534;51.028;13.716;2023-02-15T12:13:12;23.70;;;14.50;;
47772;SDS011;33534;51.028;13.716;2023-02-15T12:15:40;25.58;;;14.35;;
47772;SDS011;33534;51.028;13.716;2023-02-15T12:18:16;20.98;;;14.10;;
47772;SDS011;33534;51.028;13.716;2023-02-15T12:20:43;22.00;;;13.50;;
47772;SDS011;33534;51.028;13.716;2023-02-15T12:23:13;27.75;;;14.48;;
47772;SDS011;33534;51.028;13.716;2023-02-15T12:25:40;22.95;;;13.07;;
47772;SDS011;33534;51.028;13.716;2023-02-15T12:30:45;21.42;;;13.82;;
47772;SDS011;33534;51.028;13.716;2023-02-15T12:33:15;22.20;;;13.77;;
47772;SDS011;33534;51.028;13.716;2023-02-15T12:35:42;23.02;;;14.73;;
47772;SDS011;33534;51.028;13.716;2023-02-15T12:40:35;24.17;;;14.20;;
47772;SDS011;33534;51.028;13.716;2023-02-15T12:43:01;24.45;;;14.88;;
47772;SDS011;33534;51.028;13.716;2023-02-15T12:45:34;25.75;;;14.10;;
47772;SDS011;33534;51.028;13.716;2023-02-15T12:48:14;21.40;;;12.73;;
47772;SDS011;33534;51.028;13.716;2023-02-15T12:50:47;24.02;;;14.90;;
47772;SDS011;33534;51.028;13.716;2023-02-15T12:56:05;22.17;;;14.20;;
47772;SDS011;33534;51.028;13.716;2023-02-15T12:58:32;21.60;;;13.80;;
47772;SDS011;33534;51.028;13.716;2023-02-15T13:01:02;24.08;;;15.60;;
47772;SDS011;33534;51.028;13.716;2023-02-15T13:03:29;25.45;;;15.05;;
47772;SDS011;33534;51.028;13.716;2023-02-15T13:05:55;27.63;;;16.05;;
47772;SDS011;33534;51.028;13.716;2023-02-15T13:08:33;19.83;;;13.88;;
47772;SDS011;33534;51.028;13.716;2023-02-15T13:11:02;29.23;;;15.25;;
47772;SDS011;33534;51.028;13.716;2023-02-15T13:13:30;24.65;;;14.93;;
47772;SDS011;33534;51.028;13.716;2023-02-15T13:16:01;25.80;;;15.60;;
47772;SDS011;33534;51.028;13.716;2023-02-15T13:18:32;25.45;;;14.88;;
47772;SDS011;33534;51.028;13.716;2023-02-15T13:25:52;23.20;;;14.23;;
47772;SDS011;33534;51.028;13.716;2023-02-15T13:28:20;24.27;;;15.80;;
47772;SDS011;33534;51.028;13.716;2023-02-15T13:30:48;24.25;;;15.23;;
47772;SDS011;33534;51.028;13.716;2023-02-15T13:33:23;24.50;;;15.43;;
47772;SDS011;33534;51.028;13.716;2023-02-15T13:41:32;25.33;;;14.18;;
47772;SDS011;33534;51.028;13.716;2023-02-15T13:57:08;25.88;;;15.75;;
47772;SDS011;33534;51.028;13.716;2023-02-15T14:04:57;26.88;;;14.95;;
47772;SDS011;33534;51.028;13.716;2023-02-15T14:15:35;32.10;;;16.30;;
47772;SDS011;33534;51.028;13.716;2023-02-15T14:23:11;25.02;;;15.20;;
47772;SDS011;33534;51.028;13.716;2023-02-15T14:25:46;29.80;;;16.63;;
47772;SDS011;33534;51.028;13.716;2023-02-15T14:28:31;26.60;;;17.17;;
47772;SDS011;33534;51.028;13.716;2023-02-15T14:30:59;29.38;;;17.63;;
47772;SDS011;33534;51.028;13.716;2023-02-15T14:33:31;29.02;;;17.55;;
47772;SDS011;33534;51.028;13.716;2023-02-15T14:35:58;29.50;;;17.88;;
47772;SDS011;33534;51.028;13.716;2023-02-15T14:41:42;31.60;;;17.83;;
47772;SDS011;33534;51.028;13.716;2023-02-15T14:57:20;34.72;;;19.55;;
47772;SDS011;33534;51.028;13.716;2023-02-15T15:04:56;36.40;;;20.42;;
47772;SDS011;33534;51.028;13.716;2023-02-15T15:07:21;37.22;;;20.02;;
47772;SDS011;33534;51.028;13.716;2023-02-15T15:09:58;35.58;;;20.73;;
47772;SDS011;33534;51.028;13.716;2023-02-15T15:14:51;36.97;;;21.17;;
47772;SDS011;33534;51.028;13.716;2023-02-15T15:22:32;39.38;;;22.60;;
47772;SDS011;33534;51.028;13.716;2023-02-15T15:27:52;37.05;;;20.17;;
47772;SDS011;33534;51.028;13.716;2023-02-15T15:50:28;40.95;;;22.70;;
47772;SDS011;33534;51.028;13.716;2023-02-15T15:52:55;39.45;;;22.90;;
47772;SDS011;33534;51.028;13.716;2023-02-15T15:55:23;44.10;;;23.73;;
47772;SDS011;33534;51.028;13.716;2023-02-15T15:57:51;40.50;;;22.60;;
47772;SDS011;33534;51.028;13.716;2023-02-15T16:03:03;41.85;;;22.63;;
47772;SDS011;33534;51.028;13.716;2023-02-15T16:05:36;41.65;;;23.10;;
47772;SDS011;33534;51.028;13.716;2023-02-15T16:08:03;50.97;;;25.05;;
47772;SDS011;33534;51.028;13.716;2023-02-15T16:10:29;40.60;;;23.40;;
47772;SDS011;33534;51.028;13.716;2023-02-15T16:12:57;48.22;;;25.98;;
47772;SDS011;33534;51.028;13.716;2023-02-15T16:15:25;44.80;;;24.70;;
47772;SDS011;33534;51.028;13.716;2023-02-15T16:17:56;42.38;;;24.33;;
47772;SDS011;33534;51.028;13.716;2023-02-15T16:22:57;43.85;;;23.40;;
47772;SDS011;33534;51.028;13.716;2023-02-15T16:28:06;48.25;;;22.75;;
47772;SDS011;33534;51.028;13.716;2023-02-15T16:30:33;41.22;;;23.90;;
47772;SDS011;33534;51.028;13.716;2023-02-15T16:35:29;47.22;;;25.40;;
47772;SDS011;33534;51.028;13.716;2023-02-15T16:37:56;41.25;;;23.15;;
47772;SDS011;33534;51.028;13.716;2023-02-15T16:42:51;43.58;;;23.35;;
47772;SDS011;33534;51.028;13.716;2023-02-15T16:45:18;43.33;;;23.60;;
47772;SDS011;33534;51.028;13.716;2023-02-15T16:47:48;43.30;;;24.05;;
47772;SDS011;33534;51.028;13.716;2023-02-15T16:51:17;44.35;;;23.92;;
47772;SDS011;33534;51.028;13.716;2023-02-15T16:53:14;42.90;;;23.45;;
47772;SDS011;33534;51.028;13.716;2023-02-15T16:55:42;46.97;;;24.30;;
47772;SDS011;33534;51.028;13.716;2023-02-15T16:58:13;44.47;;;24.08;;
47772;SDS011;33534;51.028;13.716;2023-02-15T17:00:40;49.78;;;23.98;;
47772;SDS011;33534;51.028;13.716;2023-02-15T17:03:19;44.90;;;24.50;;
47772;SDS011;33534;51.028;13.716;2023-02-15T17:05:47;43.20;;;22.73;;
47772;SDS011;33534;51.028;13.716;2023-02-15T17:13:24;41.22;;;23.83;;
47772;SDS011;33534;51.028;13.716;2023-02-15T17:18:18;42.75;;;24.35;;
47772;SDS011;33534;51.028;13.716;2023-02-15T17:20:46;45.92;;;23.20;;
47772;SDS011;33534;51.028;13.716;2023-02-15T17:25:57;46.20;;;24.52;;
47772;SDS011;33534;51.028;13.716;2023-02-15T17:28:24;46.22;;;23.58;;
47772;SDS011;33534;51.028;13.716;2023-02-15T17:30:51;39.90;;;22.70;;
47772;SDS011;33534;51.028;13.716;2023-02-15T17:33:19;45.95;;;24.73;;
47772;SDS011;33534;51.028;13.716;2023-02-15T17:36:01;45.83;;;23.40;;
47772;SDS011;33534;51.028;13.716;2023-02-15T17:38:27;44.17;;;24.23;;
47772;SDS011;33534;51.028;13.716;2023-02-15T17:40:53;42.92;;;23.60;;
47772;SDS011;33534;51.028;13.716;2023-02-15T17:43:19;46.72;;;23.95;;
47772;SDS011;33534;51.028;13.716;2023-02-15T17:45:48;46.70;;;24.40;;
47772;SDS011;33534;51.028;13.716;2023-02-15T17:48:19;50.13;;;25.58;;
47772;SDS011;33534;51.028;13.716;2023-02-15T17:50:45;43.78;;;23.77;;
47772;SDS011;33534;51.028;13.716;2023-02-15T17:53:11;46.70;;;24.30;;
47772;SDS011;33534;51.028;13.716;2023-02-15T17:55:38;49.75;;;25.88;;
47772;SDS011;33534;51.028;13.716;2023-02-15T17:58:06;50.85;;;25.75;;
47772;SDS011;33534;51.028;13.716;2023-02-15T18:00:34;47.95;;;24.58;;
47772;SDS011;33534;51.028;13.716;2023-02-15T18:03:19;46.53;;;24.67;;